GJLL EGNH-EGAA
Flight info
| Callsign | GJLL |
|---|---|
| Flight time | N/A |
| Altitude | 16000 |
| Route | DIGMA M146 IPSET P6 BELZU |
| Aircraft | B350/L-SBGRW/S |
Departure
| Time | 2026-04-30 19:54 |
|---|---|
| Airport | Blackpool Airport (EGNH) |
Arrival
| Time | N/A |
|---|---|
| Airport | Belfast International Airport (EGAA) |
| Time | Latitude | Longitude | Altitude | Speed | Heading |
|---|---|---|---|---|---|
| 2026-04-30 19:48 | 53.77809 | -3.03951 | 37 ft | 0 kts | 356° |
| 2026-04-30 19:52 | 53.77829 | -3.04055 | 37 ft | 9 kts | 242° |
| 2026-04-30 19:53 | 53.77706 | -3.04099 | 37 ft | 32 kts | 205° |
| 2026-04-30 19:53 | 53.77470 | -3.04344 | 37 ft | 42 kts | 209° |
| 2026-04-30 19:53 | 53.77247 | -3.04331 | 36 ft | 13 kts | 144° |
| 2026-04-30 19:53 | 53.77224 | -3.04249 | 35 ft | 0 kts | 92° |
| 2026-04-30 19:54 | 53.77223 | -3.04224 | 35 ft | 22 kts | 94° |
| 2026-04-30 19:54 | 53.77184 | -3.03416 | 39 ft | 107 kts | 95° |
| 2026-04-30 19:54 | 53.77097 | -3.01860 | 141 ft | 153 kts | 98° |
| 2026-04-30 19:54 | 53.76571 | -3.00854 | 1105 ft | 133 kts | 198° |
| 2026-04-30 19:55 | 53.76130 | -3.02642 | 1119 ft | 193 kts | 257° |
| 2026-04-30 19:55 | 53.75882 | -3.05208 | 628 ft | 243 kts | 258° |
| 2026-04-30 19:55 | 53.75562 | -3.08084 | 636 ft | 249 kts | 256° |
| 2026-04-30 19:55 | 53.75240 | -3.10938 | 890 ft | 245 kts | 256° |
| 2026-04-30 19:56 | 53.74924 | -3.13757 | 1138 ft | 244 kts | 256° |
| 2026-04-30 19:56 | 53.74621 | -3.16511 | 1712 ft | 228 kts | 255° |
| 2026-04-30 19:56 | 53.74354 | -3.19042 | 2470 ft | 211 kts | 254° |
| 2026-04-30 19:56 | 53.74117 | -3.21406 | 3226 ft | 198 kts | 253° |
| 2026-04-30 19:57 | 53.73903 | -3.23646 | 3919 ft | 191 kts | 255° |
| 2026-04-30 19:57 | 53.73698 | -3.25860 | 4493 ft | 191 kts | 255° |
| 2026-04-30 19:57 | 53.73498 | -3.28060 | 5081 ft | 188 kts | 256° |
| 2026-04-30 19:57 | 53.73302 | -3.30254 | 5596 ft | 190 kts | 256° |
| 2026-04-30 19:58 | 53.73075 | -3.32467 | 6062 ft | 192 kts | 249° |
| 2026-04-30 19:58 | 53.72552 | -3.34516 | 6485 ft | 192 kts | 236° |
| 2026-04-30 19:58 | 53.71682 | -3.36187 | 6918 ft | 191 kts | 213° |
| 2026-04-30 19:58 | 53.70624 | -3.37533 | 7410 ft | 190 kts | 220° |
| 2026-04-30 19:59 | 53.69855 | -3.39382 | 7805 ft | 200 kts | 244° |
| 2026-04-30 19:59 | 53.69373 | -3.41540 | 8466 ft | 191 kts | 245° |
| 2026-04-30 19:59 | 53.68505 | -3.45493 | 10009 ft | 169 kts | 244° |
| 2026-04-30 20:00 | 53.68119 | -3.47302 | 10727 ft | 158 kts | 243° |
| 2026-04-30 20:00 | 53.67770 | -3.48995 | 11460 ft | 147 kts | 242° |
| 2026-04-30 20:00 | 53.67461 | -3.50567 | 12203 ft | 134 kts | 240° |
| 2026-04-30 20:00 | 53.67185 | -3.52027 | 12712 ft | 141 kts | 239° |
| 2026-04-30 20:01 | 53.66404 | -3.55626 | 13238 ft | 183 kts | 239° |
| 2026-04-30 20:01 | 53.65915 | -3.57715 | 13510 ft | 198 kts | 238° |
| 2026-04-30 20:01 | 53.65381 | -3.59934 | 13779 ft | 210 kts | 238° |
| 2026-04-30 20:02 | 53.64853 | -3.64682 | 14946 ft | 214 kts | 283° |
| 2026-04-30 20:02 | 53.65853 | -3.66633 | 15362 ft | 235 kts | 327° |
| 2026-04-30 20:03 | 53.69264 | -3.69031 | 15320 ft | 278 kts | 336° |
| 2026-04-30 20:03 | 53.70833 | -3.70865 | 15355 ft | 282 kts | 304° |
| 2026-04-30 20:03 | 53.72017 | -3.73628 | 15124 ft | 297 kts | 300° |
| 2026-04-30 20:03 | 53.73172 | -3.76500 | 15370 ft | 290 kts | 298° |
| 2026-04-30 20:04 | 53.74298 | -3.79268 | 15772 ft | 282 kts | 299° |
| 2026-04-30 20:04 | 53.75416 | -3.81985 | 16013 ft | 282 kts | 299° |
| 2026-04-30 20:04 | 53.76552 | -3.84746 | 16096 ft | 289 kts | 299° |
| 2026-04-30 20:05 | 53.78883 | -3.90422 | 16137 ft | 300 kts | 299° |
| 2026-04-30 20:05 | 53.80083 | -3.93345 | 16142 ft | 304 kts | 299° |
| 2026-04-30 20:05 | 53.82548 | -3.99370 | 14625 ft | 329 kts | 300° |
| 2026-04-30 20:06 | 53.83879 | -4.02671 | 12604 ft | 343 kts | 300° |
| 2026-04-30 20:06 | 53.85205 | -4.05964 | 10614 ft | 331 kts | 302° |
| 2026-04-30 20:06 | 53.86486 | -4.09108 | 8584 ft | 317 kts | 303° |
| 2026-04-30 20:06 | 53.87728 | -4.12085 | 6615 ft | 301 kts | 303° |
| 2026-04-30 20:07 | 53.88926 | -4.14916 | 5280 ft | 271 kts | 303° |
| 2026-04-30 20:07 | 53.89696 | -4.16616 | 4675 ft | 170 kts | 303° |
| 2026-04-30 20:07 | 53.91395 | -4.20426 | 4264 ft | 237 kts | 303° |
| 2026-04-30 20:08 | 53.92412 | -4.22761 | 4206 ft | 253 kts | 303° |
| 2026-04-30 20:08 | 53.93479 | -4.25215 | 4175 ft | 262 kts | 303° |
| 2026-04-30 20:08 | 53.94569 | -4.27730 | 4162 ft | 267 kts | 304° |
| 2026-04-30 20:08 | 53.95676 | -4.30276 | 4150 ft | 269 kts | 304° |
| 2026-04-30 20:09 | 53.96789 | -4.32843 | 4140 ft | 271 kts | 304° |
| 2026-04-30 20:09 | 53.97911 | -4.35416 | 4134 ft | 271 kts | 304° |
| 2026-04-30 20:09 | 54.00221 | -4.40701 | 3521 ft | 292 kts | 304° |
| 2026-04-30 20:10 | 54.02677 | -4.46278 | 2501 ft | 281 kts | 307° |
| 2026-04-30 20:10 | 54.03988 | -4.48663 | 2252 ft | 264 kts | 318° |
| 2026-04-30 20:10 | 54.05321 | -4.50493 | 2134 ft | 241 kts | 325° |
| 2026-04-30 20:11 | 54.07960 | -4.53511 | 1475 ft | 212 kts | 315° |
| 2026-04-30 20:11 | 54.08648 | -4.55600 | 1087 ft | 198 kts | 287° |
| 2026-04-30 20:11 | 54.08858 | -4.57759 | 675 ft | 173 kts | 261° |
| 2026-04-30 20:12 | 54.08528 | -4.60738 | 141 ft | 141 kts | 258° |
| 2026-04-30 20:12 | 54.08345 | -4.62271 | 38 ft | 102 kts | 257° |
| 2026-04-30 20:12 | 54.08331 | -4.62941 | 38 ft | 24 kts | 326° |
| 2026-04-30 20:13 | 54.08457 | -4.62994 | 40 ft | 19 kts | 346° |
| 2026-04-30 20:13 | 54.08591 | -4.63067 | 42 ft | 22 kts | 315° |
| 2026-04-30 20:13 | 54.08678 | -4.63263 | 42 ft | 7 kts | 266° |
| 2026-04-30 20:13 | 54.08666 | -4.63299 | 41 ft | 0 kts | 226° |